createdAt,value
2023-05-03T00:00:13.969Z,2.60
2023-05-03T00:03:05.080Z,2.60
2023-05-03T00:05:35.532Z,2.50
2023-05-03T00:08:07.241Z,2.60
2023-05-03T00:10:37.067Z,2.50
2023-05-03T00:13:06.527Z,2.50
2023-05-03T00:15:38.210Z,2.60
2023-05-03T00:18:07.849Z,2.60
2023-05-03T00:20:37.718Z,2.60
2023-05-03T00:23:09.081Z,2.50
2023-05-03T00:25:39.604Z,2.50
2023-05-03T00:28:09.083Z,2.40
2023-05-03T00:30:38.838Z,2.30
2023-05-03T00:33:08.259Z,2.40
2023-05-03T00:35:37.940Z,2.30
2023-05-03T00:38:09.330Z,2.20
2023-05-03T00:40:39.503Z,2.20
2023-05-03T00:43:09.100Z,2.20
2023-05-03T00:45:39.149Z,2.10
2023-05-03T00:48:08.744Z,2.10
2023-05-03T00:50:39.059Z,2.10
2023-05-03T00:53:09.809Z,2.10
2023-05-03T00:55:39.055Z,2.10
2023-05-03T00:58:08.528Z,2.10
2023-05-03T01:00:39.145Z,2.20
2023-05-03T01:03:08.719Z,2.30
2023-05-03T01:05:46.156Z,2.60
2023-05-03T01:08:25.265Z,2.80
2023-05-03T01:11:03.726Z,3.10
2023-05-03T01:13:43.058Z,3.10
2023-05-03T01:16:20.934Z,3.20
2023-05-03T01:18:52.679Z,3.30
2023-05-03T01:21:24.528Z,3.40
2023-05-03T01:24:04.560Z,3.40
2023-05-03T01:26:35.949Z,3.50
2023-05-03T01:29:05.406Z,3.60
2023-05-03T01:31:39.903Z,3.60
2023-05-03T01:34:19.981Z,3.60
2023-05-03T01:36:51.366Z,3.60
2023-05-03T01:39:22.663Z,3.70
2023-05-03T01:41:55.120Z,3.70
2023-05-03T01:44:25.886Z,3.70
2023-05-03T01:46:55.792Z,3.70
2023-05-03T01:49:25.538Z,3.70
2023-05-03T01:51:55.218Z,3.70
2023-05-03T01:54:24.516Z,3.70
2023-05-03T01:56:55.677Z,3.80
2023-05-03T01:59:25.128Z,3.80
2023-05-03T02:01:54.877Z,3.80
2023-05-03T02:04:24.264Z,3.80
2023-05-03T02:06:54.036Z,3.90
2023-05-03T02:09:24.369Z,3.90
2023-05-03T02:11:55.836Z,3.90
2023-05-03T02:14:25.241Z,3.90
2023-05-03T02:16:56.030Z,3.90
2023-05-03T02:19:25.961Z,3.90
2023-05-03T02:21:56.150Z,3.90
2023-05-03T02:24:25.588Z,3.90
2023-05-03T02:26:56.751Z,3.90
2023-05-03T02:29:26.560Z,3.90
2023-05-03T02:31:56.144Z,3.90
2023-05-03T02:34:26.692Z,3.90
2023-05-03T02:36:56.492Z,3.90
2023-05-03T02:39:25.904Z,3.90
2023-05-03T02:41:57.177Z,3.90
2023-05-03T02:44:26.458Z,3.90
2023-05-03T02:46:56.972Z,3.90
2023-05-03T02:49:26.762Z,4.00
2023-05-03T02:51:57.047Z,4.00
2023-05-03T02:54:26.580Z,4.00
2023-05-03T02:56:57.861Z,4.00
2023-05-03T02:59:27.492Z,4.00
2023-05-03T03:01:57.282Z,4.00
2023-05-03T03:04:27.558Z,4.00
2023-05-03T03:06:58.360Z,4.00
2023-05-03T03:09:28.665Z,4.00
2023-05-03T03:12:00.241Z,3.90
2023-05-03T03:14:32.227Z,3.90
2023-05-03T03:17:03.303Z,3.90
2023-05-03T03:19:32.814Z,3.90
2023-05-03T03:22:03.007Z,3.90
2023-05-03T03:24:32.403Z,3.90
2023-05-03T03:27:05.774Z,3.90
2023-05-03T03:29:37.731Z,3.90
2023-05-03T03:32:07.919Z,3.90
2023-05-03T03:34:37.531Z,4.00
2023-05-03T03:37:07.826Z,4.00
2023-05-03T03:39:40.304Z,4.00
2023-05-03T03:42:13.978Z,4.00
2023-05-03T03:44:43.340Z,4.00
2023-05-03T03:47:13.098Z,4.00
2023-05-03T03:49:42.531Z,4.10
2023-05-03T03:52:14.752Z,4.10
2023-05-03T03:54:44.531Z,4.10
2023-05-03T03:57:15.734Z,4.20
2023-05-03T03:59:45.582Z,4.30
2023-05-03T04:02:15.648Z,4.30
2023-05-03T04:04:45.190Z,4.30
2023-05-03T04:07:15.026Z,4.40
2023-05-03T04:09:44.780Z,4.40
2023-05-03T04:12:15.878Z,4.50
2023-05-03T04:14:45.198Z,4.50
2023-05-03T04:17:14.893Z,4.60
2023-05-03T04:19:44.984Z,4.70
2023-05-03T04:22:14.629Z,4.70
2023-05-03T04:24:44.203Z,4.80
2023-05-03T04:27:15.993Z,4.90
2023-05-03T04:29:45.404Z,5.00
2023-05-03T04:32:17.292Z,5.10
2023-05-03T04:34:49.065Z,5.20
2023-05-03T04:37:19.414Z,5.30
2023-05-03T04:39:48.846Z,5.40
2023-05-03T04:42:20.869Z,5.50
2023-05-03T04:44:50.256Z,5.60
2023-05-03T04:47:20.126Z,5.70
2023-05-03T04:49:49.467Z,5.80
2023-05-03T04:52:19.255Z,5.80
2023-05-03T04:54:48.581Z,6.00
2023-05-03T04:57:19.874Z,6.00
2023-05-03T04:59:48.861Z,6.10
2023-05-03T05:02:18.897Z,6.20
2023-05-03T05:04:48.182Z,6.20
2023-05-03T05:07:18.434Z,6.30
2023-05-03T05:09:47.812Z,6.40
2023-05-03T05:12:18.148Z,6.50
2023-05-03T05:14:49.027Z,6.50
2023-05-03T05:17:21.768Z,6.60
2023-05-03T05:19:51.144Z,6.70
2023-05-03T05:22:22.896Z,6.70
2023-05-03T05:24:52.311Z,6.80
2023-05-03T05:27:23.673Z,6.90
2023-05-03T05:29:54.707Z,6.90
2023-05-03T05:32:24.511Z,7.00
2023-05-03T05:34:55.850Z,7.10
2023-05-03T05:37:26.353Z,7.20
2023-05-03T05:39:56.263Z,7.20
2023-05-03T05:42:27.141Z,7.30
2023-05-03T05:44:57.808Z,7.40
2023-05-03T05:47:27.727Z,7.50
2023-05-03T05:49:57.106Z,7.50
2023-05-03T05:52:27.909Z,7.70
2023-05-03T05:54:57.715Z,7.70
2023-05-03T05:57:27.584Z,7.70
2023-05-03T05:59:58.324Z,7.80
2023-05-03T06:02:28.585Z,7.90
2023-05-03T06:04:58.413Z,8.00
2023-05-03T06:07:28.585Z,8.10
2023-05-03T06:09:57.883Z,8.20
2023-05-03T06:12:28.922Z,8.30
2023-05-03T06:15:02.837Z,8.40
2023-05-03T06:17:33.431Z,8.40
2023-05-03T06:20:03.347Z,8.40
2023-05-03T06:22:33.721Z,8.50
2023-05-03T06:25:03.903Z,8.70
2023-05-03T06:27:33.795Z,8.80
2023-05-03T06:30:04.908Z,8.90
2023-05-03T06:32:37.998Z,8.90
2023-05-03T06:35:09.517Z,8.90
2023-05-03T06:37:39.812Z,9.00
2023-05-03T06:40:10.664Z,9.10
2023-05-03T06:42:40.428Z,9.20
2023-05-03T06:45:12.228Z,9.10
2023-05-03T06:47:43.211Z,9.10
2023-05-03T06:50:12.957Z,9.20
2023-05-03T06:52:42.794Z,9.20
2023-05-03T06:55:12.311Z,9.30
2023-05-03T06:57:44.296Z,9.30
2023-05-03T07:00:16.978Z,9.40
2023-05-03T07:02:47.240Z,9.50
2023-05-03T07:05:16.573Z,9.50
2023-05-03T07:07:46.496Z,9.60
2023-05-03T07:10:15.784Z,9.70
2023-05-03T07:12:46.127Z,9.90
2023-05-03T07:15:17.049Z,9.90
2023-05-03T07:17:46.840Z,10.10
2023-05-03T07:20:16.235Z,10.10
2023-05-03T07:22:46.262Z,10.00
2023-05-03T07:25:19.041Z,10.10
2023-05-03T07:27:48.902Z,10.10
2023-05-03T07:30:20.284Z,10.10
2023-05-03T07:32:50.995Z,10.20
2023-05-03T07:35:21.041Z,10.20
2023-05-03T07:37:50.842Z,10.30
2023-05-03T07:40:20.508Z,10.40
2023-05-03T07:42:50.826Z,10.50
2023-05-03T07:45:21.647Z,10.60
2023-05-03T07:47:52.012Z,10.60
2023-05-03T07:50:21.605Z,10.60
2023-05-03T07:52:53.000Z,10.70
2023-05-03T07:55:22.735Z,8.90
2023-05-03T07:57:53.490Z,10.80
2023-05-03T08:00:24.461Z,10.80
2023-05-03T08:02:54.284Z,10.80
2023-05-03T08:05:25.112Z,11.00
2023-05-03T08:07:56.063Z,11.00
2023-05-03T08:10:25.512Z,11.10
2023-05-03T08:12:56.042Z,11.20
2023-05-03T08:15:27.091Z,11.30
2023-05-03T08:17:56.939Z,11.30
2023-05-03T08:20:27.711Z,11.20
2023-05-03T08:22:58.018Z,11.40
2023-05-03T08:25:28.672Z,11.40
2023-05-03T08:27:58.432Z,11.50
2023-05-03T08:30:29.406Z,11.30
2023-05-03T08:32:59.189Z,11.30
2023-05-03T08:35:28.526Z,11.30
2023-05-03T08:37:58.783Z,11.20
2023-05-03T08:40:29.652Z,11.40
2023-05-03T08:43:08.651Z,11.60
2023-05-03T08:45:39.431Z,11.80
2023-05-03T08:48:09.612Z,11.90
2023-05-03T08:50:42.692Z,11.80
2023-05-03T08:53:13.171Z,11.80
2023-05-03T08:55:43.085Z,11.80
2023-05-03T08:58:13.532Z,11.80
2023-05-03T09:00:45.463Z,11.80
2023-05-03T09:03:15.876Z,11.80
2023-05-03T09:05:46.803Z,11.90
2023-05-03T09:08:17.365Z,12.10
2023-05-03T09:10:46.999Z,12.30
2023-05-03T09:13:16.863Z,12.10
2023-05-03T09:15:55.093Z,12.20
2023-05-03T09:18:25.768Z,12.10
2023-05-03T09:20:56.782Z,12.00
2023-05-03T09:23:33.126Z,12.00
2023-05-03T09:26:02.878Z,12.10
2023-05-03T09:28:42.079Z,12.40
2023-05-03T09:31:13.477Z,12.40
2023-05-03T09:33:43.405Z,12.40
2023-05-03T09:36:13.129Z,12.40
2023-05-03T09:38:43.065Z,12.40
2023-05-03T09:41:13.121Z,12.50
2023-05-03T09:43:51.727Z,12.60
2023-05-03T09:46:22.515Z,12.70
2023-05-03T09:48:54.475Z,12.80
2023-05-03T09:51:25.093Z,12.90
2023-05-03T09:53:59.135Z,12.90
2023-05-03T09:56:28.964Z,13.00
2023-05-03T09:58:59.229Z,13.10
2023-05-03T10:01:32.317Z,13.10
2023-05-03T10:04:03.189Z,13.00
2023-05-03T10:06:37.128Z,12.80
2023-05-03T10:09:14.660Z,12.80
2023-05-03T10:11:50.085Z,12.80
2023-05-03T10:14:19.923Z,13.00
2023-05-03T10:16:54.754Z,13.20
2023-05-03T10:19:30.938Z,13.30
2023-05-03T10:22:06.170Z,13.30
2023-05-03T10:24:36.469Z,13.50
2023-05-03T10:27:09.345Z,13.50
2023-05-03T10:29:54.161Z,13.70
2023-05-03T10:32:43.629Z,14.00
2023-05-03T10:35:16.812Z,14.10
2023-05-03T10:37:47.333Z,14.20
2023-05-03T10:40:17.825Z,14.30
2023-05-03T10:42:52.207Z,14.40
2023-05-03T10:45:27.040Z,14.10
2023-05-03T10:48:21.016Z,14.10
2023-05-03T10:50:52.117Z,14.90
2023-05-03T10:53:36.953Z,15.90
2023-05-03T10:56:09.072Z,16.90
2023-05-03T10:58:43.663Z,18.10
2023-05-03T11:01:16.591Z,18.80
2023-05-03T11:03:51.088Z,18.20
2023-05-03T11:06:35.038Z,18.00
2023-05-03T11:09:06.226Z,18.50
2023-05-03T11:11:37.738Z,19.50
2023-05-03T11:14:07.818Z,19.80
2023-05-03T11:16:40.834Z,19.80
2023-05-03T11:19:12.251Z,20.40
2023-05-03T11:21:41.954Z,20.20
2023-05-03T11:24:11.445Z,20.20
2023-05-03T11:26:41.838Z,19.90
2023-05-03T11:29:13.458Z,20.00
2023-05-03T11:31:44.630Z,20.00
2023-05-03T11:34:16.082Z,19.20
2023-05-03T11:36:45.992Z,18.40
2023-05-03T11:39:18.879Z,17.70
2023-05-03T11:42:04.775Z,17.30
2023-05-03T11:44:34.234Z,16.50
2023-05-03T11:47:04.859Z,16.00
2023-05-03T11:49:35.881Z,15.60
2023-05-03T11:52:05.802Z,15.30
2023-05-03T11:54:35.200Z,15.70
2023-05-03T11:57:14.432Z,15.70
2023-05-03T11:59:45.181Z,16.40
2023-05-03T12:02:16.290Z,17.10
2023-05-03T12:04:48.077Z,17.10
2023-05-03T12:07:21.088Z,16.30
2023-05-03T12:10:06.576Z,16.00
2023-05-03T12:12:46.562Z,15.90
2023-05-03T12:15:30.041Z,15.50
2023-05-03T12:18:01.337Z,15.30
2023-05-03T12:23:10.520Z,14.90
2023-05-03T12:25:43.898Z,14.90
2023-05-03T12:28:20.148Z,15.50
2023-05-03T12:30:53.223Z,16.00
2023-05-03T12:33:23.642Z,16.50
2023-05-03T12:35:56.261Z,16.30
2023-05-03T12:38:31.001Z,16.30
2023-05-03T12:41:00.909Z,16.10
2023-05-03T12:43:30.903Z,16.30
2023-05-03T12:46:30.724Z,16.60
2023-05-03T12:48:54.284Z,16.70
2023-05-03T12:51:32.782Z,17.00
2023-05-03T12:54:04.133Z,17.40
2023-05-03T12:56:33.842Z,17.50
2023-05-03T12:59:31.762Z,17.20
2023-05-03T13:07:01.563Z,16.40
2023-05-03T13:10:12.196Z,16.50
2023-05-03T13:12:22.530Z,16.40
2023-05-03T13:14:53.070Z,16.70
2023-05-03T13:17:23.973Z,16.40
2023-05-03T13:19:54.466Z,16.30
2023-05-03T13:22:25.537Z,16.40
2023-05-03T13:24:56.335Z,16.80
2023-05-03T13:27:25.921Z,17.30
2023-05-03T13:29:55.951Z,18.10
2023-05-03T13:32:25.471Z,18.70
2023-05-03T13:34:55.350Z,18.90
2023-05-03T13:37:26.192Z,19.20
2023-05-03T13:39:56.899Z,18.90
2023-05-03T13:42:26.235Z,18.60
2023-05-03T13:44:56.521Z,18.20
2023-05-03T13:47:27.005Z,17.30
2023-05-03T13:49:59.444Z,16.70
2023-05-03T13:52:31.215Z,16.30
2023-05-03T13:55:02.446Z,16.00
2023-05-03T13:57:32.024Z,15.80
2023-05-03T14:00:02.259Z,15.20
2023-05-03T14:02:31.839Z,14.80
2023-05-03T14:05:01.566Z,14.40
2023-05-03T14:07:32.932Z,14.10
2023-05-03T14:10:03.538Z,13.70
2023-05-03T14:12:36.891Z,13.60
2023-05-03T14:15:07.908Z,13.70
2023-05-03T14:17:37.527Z,14.10
2023-05-03T14:20:09.635Z,14.10
2023-05-03T14:22:40.986Z,14.30
2023-05-03T14:25:11.599Z,14.70
2023-05-03T14:27:41.294Z,14.60
2023-05-03T14:30:11.713Z,14.50
2023-05-03T14:32:41.123Z,14.30
2023-05-03T14:35:11.733Z,14.20
2023-05-03T14:37:42.868Z,14.10
2023-05-03T14:40:57.218Z,13.90
2023-05-03T14:43:42.090Z,13.60
2023-05-03T14:46:13.825Z,13.30
2023-05-03T14:48:44.106Z,13.50
2023-05-03T14:51:15.464Z,13.40
2023-05-03T14:53:47.719Z,13.20
2023-05-03T14:56:19.225Z,13.20
2023-05-03T14:58:49.483Z,13.30
2023-05-03T15:01:21.033Z,13.10
2023-05-03T15:03:51.356Z,13.00
2023-05-03T15:06:27.113Z,12.90
2023-05-03T15:09:00.157Z,12.80
2023-05-03T15:11:31.228Z,12.70
2023-05-03T15:14:02.092Z,12.80
2023-05-03T15:16:34.057Z,12.90
2023-05-03T15:19:07.840Z,12.90
2023-05-03T15:21:48.367Z,12.70
2023-05-03T15:24:20.639Z,12.70
2023-05-03T15:26:52.270Z,12.70
2023-05-03T15:29:22.255Z,12.60
2023-05-03T15:31:53.639Z,12.70
2023-05-03T15:34:24.546Z,13.30
2023-05-03T15:36:55.257Z,13.90
2023-05-03T15:39:27.547Z,14.50
2023-05-03T15:41:58.626Z,14.90
2023-05-03T15:44:28.946Z,15.00
2023-05-03T15:46:59.055Z,14.90
2023-05-03T15:49:29.484Z,14.70
2023-05-03T15:52:00.668Z,14.70
2023-05-03T15:54:32.565Z,14.90
2023-05-03T15:57:05.914Z,15.30
2023-05-03T15:59:36.627Z,16.00
2023-05-03T16:02:08.081Z,16.30
2023-05-03T16:04:39.318Z,16.50
2023-05-03T16:07:10.321Z,16.50
2023-05-03T16:09:41.812Z,16.10
2023-05-03T16:12:13.035Z,15.40
2023-05-03T16:14:43.589Z,14.90
2023-05-03T16:17:14.540Z,14.30
2023-05-03T16:19:45.149Z,14.30
2023-05-03T16:22:18.172Z,14.80
2023-05-03T16:24:50.089Z,15.20
2023-05-03T16:27:20.947Z,15.40
2023-05-03T16:29:52.226Z,15.70
2023-05-03T16:32:23.920Z,16.00
2023-05-03T16:34:54.392Z,16.00
2023-05-03T16:37:26.002Z,15.90
2023-05-03T16:39:58.231Z,16.10
2023-05-03T16:42:29.304Z,15.90
2023-05-03T16:44:59.847Z,16.00
2023-05-03T16:47:31.508Z,15.40
2023-05-03T16:50:02.163Z,15.10
2023-05-03T16:52:33.896Z,14.80
2023-05-03T16:55:06.746Z,14.40
2023-05-03T16:57:38.614Z,14.10
2023-05-03T17:00:11.678Z,14.00
2023-05-03T17:02:43.680Z,14.00
2023-05-03T17:05:15.513Z,13.90
2023-05-03T17:07:46.957Z,13.80
2023-05-03T17:10:19.014Z,13.30
2023-05-03T17:12:50.524Z,13.00
2023-05-03T17:15:21.532Z,12.60
2023-05-03T17:17:52.603Z,12.50
2023-05-03T17:20:22.821Z,12.10
2023-05-03T17:22:54.848Z,11.70
2023-05-03T17:25:27.002Z,11.40
2023-05-03T17:27:58.280Z,11.30
2023-05-03T17:30:29.241Z,11.20
2023-05-03T17:33:01.062Z,11.00
2023-05-03T17:35:31.597Z,11.00
2023-05-03T17:38:02.985Z,10.80
2023-05-03T17:40:35.538Z,10.70
2023-05-03T17:43:07.062Z,10.60
2023-05-03T17:45:37.325Z,10.60
2023-05-03T17:48:08.608Z,10.60
2023-05-03T17:50:38.468Z,10.40
2023-05-03T17:53:10.226Z,10.30
2023-05-03T17:55:41.833Z,10.30
2023-05-03T17:58:14.127Z,10.10
2023-05-03T18:00:45.053Z,10.20
2023-05-03T18:03:17.441Z,10.10
2023-05-03T18:05:48.746Z,10.00
2023-05-03T18:08:19.788Z,10.00
2023-05-03T18:10:52.454Z,9.80
2023-05-03T18:13:23.406Z,9.80
2023-05-03T18:15:53.695Z,9.70
2023-05-03T18:18:24.785Z,9.60
2023-05-03T18:21:01.425Z,9.60
2023-05-03T18:23:33.253Z,9.60
2023-05-03T18:26:05.024Z,9.50
2023-05-03T18:28:36.024Z,9.40
2023-05-03T18:31:06.283Z,9.40
2023-05-03T18:33:37.508Z,9.40
2023-05-03T18:36:11.916Z,9.20
2023-05-03T18:38:44.829Z,9.20
2023-05-03T18:41:17.294Z,9.10
2023-05-03T18:43:49.918Z,9.00
2023-05-03T18:46:21.044Z,8.80
2023-05-03T18:48:52.748Z,8.70
2023-05-03T18:51:23.087Z,8.60
2023-05-03T18:53:53.964Z,8.50
2023-05-03T18:56:26.606Z,8.40
2023-05-03T18:58:57.505Z,8.30
2023-05-03T19:01:31.831Z,8.10
2023-05-03T19:04:04.798Z,8.10
2023-05-03T19:06:35.228Z,8.00
2023-05-03T19:09:06.493Z,8.00
2023-05-03T19:11:38.341Z,7.90
2023-05-03T19:14:10.091Z,7.90
2023-05-03T19:16:40.315Z,7.90
2023-05-03T19:19:12.369Z,7.70
2023-05-03T19:21:44.427Z,7.70
2023-05-03T19:24:15.869Z,7.70
2023-05-03T19:26:47.452Z,7.60
2023-05-03T19:29:18.530Z,7.60
2023-05-03T19:31:49.024Z,7.50
2023-05-03T19:34:20.622Z,7.40
2023-05-03T19:36:50.818Z,7.30
2023-05-03T19:39:21.924Z,7.30
2023-05-03T19:41:53.749Z,7.30
2023-05-03T19:44:24.513Z,7.30
2023-05-03T19:46:55.549Z,7.20
2023-05-03T19:49:27.178Z,7.10
2023-05-03T19:51:57.641Z,7.00
2023-05-03T19:54:28.762Z,7.00
2023-05-03T19:57:00.480Z,7.00
2023-05-03T19:59:33.292Z,7.00
2023-05-03T20:02:07.750Z,6.90
2023-05-03T20:04:41.284Z,6.80
2023-05-03T20:07:13.167Z,6.80
2023-05-03T20:09:48.618Z,6.70
2023-05-03T20:12:20.665Z,6.70
2023-05-03T20:14:52.053Z,6.70
2023-05-03T20:17:22.324Z,6.80
2023-05-03T20:19:53.804Z,6.80
2023-05-03T20:22:24.257Z,6.80
2023-05-03T20:24:55.639Z,6.80
2023-05-03T20:27:30.118Z,6.70
2023-05-03T20:30:05.262Z,6.60
2023-05-03T20:32:38.172Z,6.50
2023-05-03T20:35:12.414Z,6.50
2023-05-03T20:37:43.684Z,6.40
2023-05-03T20:40:41.468Z,6.30
2023-05-03T20:43:15.306Z,6.30
2023-05-03T20:45:47.493Z,6.20
2023-05-03T20:48:17.980Z,6.10
2023-05-03T20:50:48.193Z,6.10
2023-05-03T20:53:18.393Z,6.00
2023-05-03T20:55:49.610Z,6.00
2023-05-03T20:58:21.815Z,5.90
2023-05-03T21:00:56.976Z,5.80
2023-05-03T21:03:28.355Z,5.70
2023-05-03T21:06:00.168Z,5.60
2023-05-03T21:08:30.322Z,5.60
2023-05-03T21:11:01.294Z,5.60
2023-05-03T21:13:36.204Z,5.50
2023-05-03T21:16:09.714Z,5.50
2023-05-03T21:18:40.436Z,5.40
2023-05-03T21:21:11.577Z,5.40
2023-05-03T21:23:41.854Z,5.30
2023-05-03T21:26:12.990Z,5.20
2023-05-03T21:28:44.786Z,5.20
2023-05-03T21:31:15.937Z,5.20
2023-05-03T21:33:46.933Z,5.10
2023-05-03T21:36:18.411Z,5.10
2023-05-03T21:38:48.982Z,5.00
2023-05-03T21:41:19.867Z,5.00
2023-05-03T21:43:52.130Z,4.90
2023-05-03T21:46:23.263Z,5.00
2023-05-03T21:48:53.225Z,4.80
2023-05-03T21:51:29.024Z,4.80
2023-05-03T21:53:59.015Z,4.70
2023-05-03T21:56:30.453Z,4.70
2023-05-03T21:59:02.217Z,4.60
2023-05-03T22:01:33.509Z,4.70
2023-05-03T22:04:03.860Z,4.80
2023-05-03T22:06:35.533Z,4.80
2023-05-03T22:09:07.447Z,4.80
2023-05-03T22:11:39.280Z,4.80
2023-05-03T22:14:12.024Z,4.70
2023-05-03T22:16:44.295Z,4.60
2023-05-03T22:19:14.850Z,4.70
2023-05-03T22:21:46.625Z,4.70
2023-05-03T22:24:17.555Z,4.60
2023-05-03T22:26:49.494Z,4.50
2023-05-03T22:29:22.934Z,4.40
2023-05-03T22:31:54.711Z,4.40
2023-05-03T22:34:25.505Z,4.40
2023-05-03T22:36:56.950Z,4.40
2023-05-03T22:39:27.746Z,4.40
2023-05-03T22:41:59.795Z,4.40
2023-05-03T22:44:32.688Z,4.30
2023-05-03T22:47:04.584Z,4.20
2023-05-03T22:49:37.118Z,4.30
2023-05-03T22:52:09.713Z,4.20
2023-05-03T22:54:40.191Z,4.20
2023-05-03T22:57:11.753Z,4.00
2023-05-03T22:59:47.541Z,4.00
2023-05-03T23:02:19.072Z,4.10
2023-05-03T23:04:49.741Z,4.00
2023-05-03T23:07:21.495Z,4.10
2023-05-03T23:09:51.916Z,4.10
2023-05-03T23:12:23.246Z,4.10
2023-05-03T23:14:55.033Z,4.10
2023-05-03T23:17:26.708Z,4.00
2023-05-03T23:19:56.997Z,4.00
2023-05-03T23:22:29.400Z,4.00
2023-05-03T23:25:00.656Z,3.90
2023-05-03T23:27:33.624Z,3.90
2023-05-03T23:30:06.046Z,3.90
2023-05-03T23:32:39.264Z,3.90
2023-05-03T23:35:12.252Z,3.90
2023-05-03T23:37:45.762Z,3.90
2023-05-03T23:40:16.225Z,3.90
2023-05-03T23:42:48.967Z,3.80
2023-05-03T23:45:21.663Z,3.90
2023-05-03T23:47:53.761Z,3.90
2023-05-03T23:50:24.263Z,3.80
2023-05-03T23:52:55.733Z,3.70
2023-05-03T23:55:26.572Z,3.70
2023-05-03T23:57:57.877Z,3.70
